Time;durP1;ratioP1;P1;durP2;ratioP2;P2;SDS_P1;SDS_P2;PMS_P1;PMS_P2;Temp;Humidity;BMP_temperature;BMP_pressure;BME280_temperature;BME280_humidity;BME280_pressure;Samples;Min_cycle;Max_cycle;Signal;HPM_P1;HPM_P2
2021/08/20 00:00:56;;;;;;;;;;;;;;;22.61;28.63;97896.28;5055075;28;1063;-85
2021/08/20 00:03:21;;;;;;;;;;;;;;;22.59;28.97;97901.63;5071657;28;1906;-84
2021/08/20 00:05:47;;;;;;;;;;;;;;;22.48;29.23;97906.81;5055454;28;1321;-85
2021/08/20 00:08:12;;;;;;;;;;;;;;;22.67;28.86;97902.97;5073417;28;773;-85
2021/08/20 00:10:37;;;;;;;;;;;;;;;22.62;28.75;97900.69;5055726;28;1286;-85
2021/08/20 00:13:03;;;;;;;;;;;;;;;22.62;28.87;97900.69;5071568;28;1427;-85
2021/08/20 00:15:30;;;;;;;;;;;;;;;22.56;29.04;97905.38;5055799;28;1361;-85
2021/08/20 00:17:56;;;;;;;;;;;;;;;22.48;29.14;97896.28;5055800;28;850;-85
2021/08/20 00:20:21;;;;;;;;;;;;;;;22.54;29.06;97894.47;5038388;28;1486;-84
2021/08/20 00:22:47;;;;;;;;;;;;;;;22.54;28.95;97897.31;5055239;28;1977;-85
2021/08/20 00:25:12;;;;;;;;;;;;;;;22.67;29.00;97891.63;5055444;28;1174;-83
2021/08/20 00:27:38;;;;;;;;;;;;;;;22.60;28.96;97889.03;5072274;28;576;-85
2021/08/20 00:30:07;;;;;;;;;;;;;;;22.48;29.30;97892.66;5055085;28;1260;-85
2021/08/20 00:32:32;;;;;;;;;;;;;;;22.66;29.01;97895.72;5055666;28;1283;-85
2021/08/20 00:34:58;;;;;;;;;;;;;;;22.51;29.03;97888.91;5071992;28;1245;-85
2021/08/20 00:37:23;;;;;;;;;;;;;;;22.65;28.93;97894.13;5071952;28;781;-84
2021/08/20 00:39:48;;;;;;;;;;;;;;;22.64;28.73;97892.56;5055254;28;1287;-85
2021/08/20 00:42:14;;;;;;;;;;;;;;;22.57;29.04;97892.75;5072197;28;1976;-85
2021/08/20 00:44:40;;;;;;;;;;;;;;;22.46;29.47;97893.09;5055134;28;1185;-85
2021/08/20 00:47:05;;;;;;;;;;;;;;;22.84;28.75;97881.72;5055298;28;1338;-84
2021/08/20 00:49:31;;;;;;;;;;;;;;;22.48;29.16;97884.13;5055221;28;1160;-85
2021/08/20 00:51:56;;;;;;;;;;;;;;;22.56;29.05;97891.97;5071297;28;837;-86
2021/08/20 00:54:22;;;;;;;;;;;;;;;22.67;28.85;97894.47;5071908;28;1228;-85
2021/08/20 00:56:47;;;;;;;;;;;;;;;22.77;28.51;97876.31;5037815;28;1354;-84
2021/08/20 00:59:13;;;;;;;;;;;;;;;22.67;28.87;97880.28;5054979;28;1227;-85
2021/08/20 01:01:38;;;;;;;;;;;;;;;22.61;28.87;97882.09;5071216;28;946;-85
2021/08/20 01:04:07;;;;;;;;;;;;;;;22.63;28.73;97879.59;5053954;28;1891;-87
2021/08/20 01:06:33;;;;;;;;;;;;;;;22.66;28.68;97884.38;5054314;28;1488;-85
2021/08/20 01:08:59;;;;;;;;;;;;;;;22.86;28.38;97882.06;5054883;28;1218;-85
2021/08/20 01:11:25;;;;;;;;;;;;;;;22.41;29.14;97892.88;5071096;28;865;-85
2021/08/20 01:13:51;;;;;;;;;;;;;;;22.63;29.08;97890.94;5053804;28;1154;-85
2021/08/20 01:16:17;;;;;;;;;;;;;;;22.66;28.96;97878.69;5053764;28;1226;-85
2021/08/20 01:18:43;;;;;;;;;;;;;;;22.80;28.68;97883.13;5054896;28;1239;-84
2021/08/20 01:21:10;;;;;;;;;;;;;;;22.65;28.96;97888.47;5053961;28;1210;-85
2021/08/20 01:23:36;;;;;;;;;;;;;;;22.20;29.77;97883.81;5053605;28;1976;-85
2021/08/20 01:26:03;;;;;;;;;;;;;;;22.72;28.91;97893.09;5053751;28;1328;-85
2021/08/20 01:28:29;;;;;;;;;;;;;;;22.72;28.78;97893.88;5071140;28;1190;-85
2021/08/20 01:31:01;;;;;;;;;;;;;;;22.69;28.78;97891.97;5054087;28;1215;-84
2021/08/20 01:33:27;;;;;;;;;;;;;;;22.66;29.04;97895.72;5037712;28;1337;-85
2021/08/20 01:35:53;;;;;;;;;;;;;;;22.78;28.60;97879.94;5054422;28;1259;-85
2021/08/20 01:38:18;;;;;;;;;;;;;;;22.90;28.80;97889.69;5070661;28;1446;-85
2021/08/20 01:40:44;;;;;;;;;;;;;;;22.74;28.86;97882.09;5037784;28;1389;-86
2021/08/20 01:43:13;;;;;;;;;;;;;;;22.68;28.80;97881.88;5054820;28;1887;-85
2021/08/20 01:45:38;;;;;;;;;;;;;;;22.47;29.22;97885.41;5037703;28;1420;-84
2021/08/20 01:48:04;;;;;;;;;;;;;;;22.64;28.95;97886.88;5054204;28;1329;-85
2021/08/20 01:50:30;;;;;;;;;;;;;;;22.83;28.62;97871.63;5054223;28;1195;-85
2021/08/20 01:52:56;;;;;;;;;;;;;;;22.88;28.25;97876.75;5054732;28;1356;-85
2021/08/20 01:55:21;;;;;;;;;;;;;;;22.62;28.90;97884.47;5054252;28;1270;-85
2021/08/20 01:57:47;;;;;;;;;;;;;;;22.73;28.60;97881.28;5070772;28;1159;-84
2021/08/20 02:00:16;;;;;;;;;;;;;;;22.28;29.76;97882.34;5054134;28;1364;-86
2021/08/20 02:02:41;;;;;;;;;;;;;;;22.83;28.49;97871.63;5088494;28;1902;-85
2021/08/20 02:05:12;;;;;;;;;;;;;;;23.06;28.31;97875.38;5055079;28;1195;-85
2021/08/20 02:07:40;;;;;;;;;;;;;;;22.92;28.35;97875.84;5054633;28;1215;-85
2021/08/20 02:10:08;;;;;;;;;;;;;;;22.87;28.60;97877.19;5054702;28;1357;-85
2021/08/20 02:12:34;;;;;;;;;;;;;;;22.78;28.43;97875.03;5054257;28;1311;-85
2021/08/20 02:15:06;;;;;;;;;;;;;;;22.99;28.13;97872.75;5071864;28;944;-86
2021/08/20 02:17:31;;;;;;;;;;;;;;;22.74;28.79;97885.75;5070920;28;885;-85
2021/08/20 02:19:57;;;;;;;;;;;;;;;22.68;28.80;97881.88;5054142;28;1373;-85
2021/08/20 02:22:24;;;;;;;;;;;;;;;22.79;28.64;97873.78;5054206;28;1977;-85
2021/08/20 02:24:54;;;;;;;;;;;;;;;22.70;28.48;97885.06;5054313;28;1213;-85
2021/08/20 02:27:19;;;;;;;;;;;;;;;22.85;28.66;97886.16;5057587;28;1317;-85
2021/08/20 02:29:46;;;;;;;;;;;;;;;22.61;28.78;97884.94;5057790;28;1256;-85
2021/08/20 02:32:14;;;;;;;;;;;;;;;22.88;28.39;97888.09;5041254;28;1293;-86
2021/08/20 02:34:43;;;;;;;;;;;;;;;22.77;28.72;97884.81;5058034;28;1279;-85
2021/08/20 02:37:09;;;;;;;;;;;;;;;22.55;28.90;97884.72;5057811;28;971;-84
2021/08/20 02:39:44;;;;;;;;;;;;;;;22.65;28.79;97888.47;5042320;28;1190;-85
2021/08/20 02:42:10;;;;;;;;;;;;;;;22.62;29.14;97895.03;5057561;28;1867;-84
2021/08/20 02:44:36;;;;;;;;;;;;;;;22.87;28.37;97889.34;5091859;28;871;-85
2021/08/20 02:47:02;;;;;;;;;;;;;;;22.95;28.26;97889.13;5057932;28;1124;-85
2021/08/20 02:49:28;;;;;;;;;;;;;;;22.53;28.94;97900.59;5041438;28;1362;-85
2021/08/20 02:51:54;;;;;;;;;;;;;;;22.73;28.77;97898.31;5057630;28;1254;-85
2021/08/20 02:54:30;;;;;;;;;;;;;;;22.90;28.46;97892.53;5042448;28;1304;-85
2021/08/20 02:56:56;;;;;;;;;;;;;;;22.37;29.49;97898.66;5074266;28;1108;-85
2021/08/20 02:59:23;;;;;;;;;;;;;;;22.57;28.78;97899.22;5041621;28;1377;-85
2021/08/20 03:01:53;;;;;;;;;;;;;;;22.64;28.92;97903.91;5058977;23;1600;-85
2021/08/20 03:04:20;;;;;;;;;;;;;;;22.69;30.71;97911.84;5062389;28;2004;-85
2021/08/20 03:06:45;;;;;;;;;;;;;;;23.07;29.76;97900.44;5089765;28;1324;-85
2021/08/20 03:09:23;;;;;;;;;;;;;;;23.11;29.35;97906.00;5071071;28;1377;-85
2021/08/20 03:11:55;;;;;;;;;;;;;;;22.94;29.52;97905.34;5090321;28;1454;-86
2021/08/20 03:14:21;;;;;;;;;;;;;;;22.79;29.11;97919.19;5065071;28;1379;-86
2021/08/20 03:17:29;;;;;;;;;;;;;;;22.86;28.90;97910.44;5071428;28;1191;-85
2021/08/20 03:19:55;;;;;;;;;;;;;;;22.85;28.66;97920.22;5069711;28;1269;-85
2021/08/20 03:22:20;;;;;;;;;;;;;;;22.77;28.79;97918.84;5064574;28;1969;-85
2021/08/20 03:24:46;;;;;;;;;;;;;;;22.65;29.02;97916.81;5072543;28;1353;-85
2021/08/20 03:27:11;;;;;;;;;;;;;;;22.77;28.46;97918.84;5050230;28;1132;-86
2021/08/20 03:29:40;;;;;;;;;;;;;;;22.59;28.71;97924.31;5074194;28;1110;-86
2021/08/20 03:32:32;;;;;;;;;;;;;;;22.71;28.58;97911.38;5068899;28;1230;-85
2021/08/20 03:34:59;;;;;;;;;;;;;;;22.51;28.66;97934.28;5055495;28;1433;-85
2021/08/20 03:37:24;;;;;;;;;;;;;;;22.63;28.35;97924.97;5067358;28;1348;-84
2021/08/20 03:39:52;;;;;;;;;;;;;;;22.51;28.38;97934.28;5073785;28;1522;-86
2021/08/20 03:42:31;;;;;;;;;;;;;;;22.48;28.23;97932.34;5068061;28;1926;-86
2021/08/20 03:45:36;;;;;;;;;;;;;;;22.59;28.04;97941.34;5048566;28;1060;-82
2021/08/20 03:48:23;;;;;;;;;;;;;;;22.69;27.91;97940.19;5066310;28;1190;-84
2021/08/20 03:50:48;;;;;;;;;;;;;;;22.50;28.06;97944.03;5078772;28;1280;-83
2021/08/20 03:53:20;;;;;;;;;;;;;;;22.48;28.16;97946.53;5062839;28;936;-83
2021/08/20 03:55:46;;;;;;;;;;;;;;;22.65;27.59;97938.72;5072218;28;1211;-85
2021/08/20 03:58:44;;;;;;;;;;;;;;;22.61;27.81;97944.50;5055201;28;1232;-83
2021/08/20 04:01:16;;;;;;;;;;;;;;;22.51;27.84;97945.63;5082757;28;1394;-84
2021/08/20 04:03:44;;;;;;;;;;;;;;;22.61;27.84;97944.50;5072998;28;1919;-84
2021/08/20 04:06:28;;;;;;;;;;;;;;;22.65;27.52;97950.84;5084813;28;833;-84
2021/08/20 04:08:53;;;;;;;;;;;;;;;22.47;27.93;97945.72;5055155;28;1191;-85
2021/08/20 04:11:37;;;;;;;;;;;;;;;22.61;27.51;97953.00;5085184;28;566;-85
2021/08/20 04:14:08;;;;;;;;;;;;;;;22.42;27.69;97948.34;5049709;28;1306;-85
2021/08/20 04:16:36;;;;;;;;;;;;;;;22.51;27.50;97945.63;5071722;28;1472;-85
2021/08/20 04:19:02;;;;;;;;;;;;;;;22.64;27.27;97952.09;5055391;28;1181;-85
2021/08/20 04:21:28;;;;;;;;;;;;;;;22.42;27.81;97948.34;5071481;28;1326;-85
2021/08/20 04:23:54;;;;;;;;;;;;;;;22.52;27.38;97941.53;5072066;28;1914;-85
2021/08/20 04:26:20;;;;;;;;;;;;;;;22.53;27.50;97948.78;5065744;28;1319;-85
2021/08/20 04:28:59;;;;;;;;;;;;;;;22.59;27.38;97949.84;5057388;28;1215;-85
2021/08/20 04:31:45;;;;;;;;;;;;;;;22.49;27.82;97951.75;5089722;28;958;-85
2021/08/20 04:34:20;;;;;;;;;;;;;;;22.43;27.46;97949.91;5067764;28;1245;-84
2021/08/20 04:37:00;;;;;;;;;;;;;;;22.33;27.77;97951.84;5058688;28;1302;-85
2021/08/20 04:39:52;;;;;;;;;;;;;;;22.49;27.78;97948.13;5075332;28;1173;-85
2021/08/20 04:42:45;;;;;;;;;;;;;;;22.60;27.29;97954.25;5073849;28;1983;-85
2021/08/20 04:45:29;;;;;;;;;;;;;;;22.55;27.62;97954.81;5084165;28;1205;-85
2021/08/20 04:48:30;;;;;;;;;;;;;;;22.51;27.61;97956.97;5015468;28;1220;-85
2021/08/20 04:51:15;;;;;;;;;;;;;;;22.51;27.71;97962.63;5079676;28;1202;-85
2021/08/20 04:53:45;;;;;;;;;;;;;;;22.16;28.09;97959.63;5083239;28;1035;-84
2021/08/20 04:56:22;;;;;;;;;;;;;;;22.46;27.82;97960.38;5066863;28;1229;-85
2021/08/20 04:58:49;;;;;;;;;;;;;;;22.50;27.58;97961.06;5071138;28;1178;-85
2021/08/20 05:01:14;;;;;;;;;;;;;;;22.47;27.66;97962.75;5081001;28;1178;-85
2021/08/20 05:03:40;;;;;;;;;;;;;;;22.49;27.67;97960.25;5055425;28;1894;-85
2021/08/20 05:06:05;;;;;;;;;;;;;;;22.48;27.45;97969.19;5033618;28;1143;-85
2021/08/20 05:08:31;;;;;;;;;;;;;;;22.49;27.53;97970.81;5050434;28;879;-85
2021/08/20 05:10:56;;;;;;;;;;;;;;;22.45;27.63;97970.13;5034290;28;887;-83
2021/08/20 05:13:22;;;;;;;;;;;;;;;22.35;27.80;97972.81;5050609;28;882;-85
2021/08/20 05:15:47;;;;;;;;;;;;;;;22.50;27.65;97972.41;5050651;28;889;-85
2021/08/20 05:18:12;;;;;;;;;;;;;;;22.36;27.63;97967.94;5051117;28;674;-84
2021/08/20 05:20:53;;;;;;;;;;;;;;;22.51;27.48;97973.97;5034572;28;1307;-85
2021/08/20 05:23:19;;;;;;;;;;;;;;;22.51;27.39;97973.97;5033058;28;1969;-85
2021/08/20 05:25:44;;;;;;;;;;;;;;;22.46;27.81;97978.16;5034426;28;1067;-85
2021/08/20 05:28:12;;;;;;;;;;;;;;;22.62;27.48;97980.91;5050074;28;858;-85
2021/08/20 05:30:37;;;;;;;;;;;;;;;22.62;27.57;97980.09;5050691;28;634;-85
2021/08/20 05:33:03;;;;;;;;;;;;;;;22.41;27.97;97980.78;5068231;28;740;-85
2021/08/20 05:35:28;;;;;;;;;;;;;;;22.36;28.70;97977.25;5205429;22;3471;-81
2021/08/20 05:37:54;;;;;;;;;;;;;;;23.20;29.22;97974.22;5102096;22;3686;-81
2021/08/20 05:40:19;;;;;;;;;;;;;;;23.64;30.23;97974.38;5061693;28;1166;-82
2021/08/20 05:42:45;;;;;;;;;;;;;;;23.40;30.72;97971.09;5083464;28;1918;-82
2021/08/20 05:45:10;;;;;;;;;;;;;;;23.10;30.82;97983.88;5077153;28;1079;-82
2021/08/20 05:47:36;;;;;;;;;;;;;;;22.91;30.86;97976.41;5084188;28;1312;-82
2021/08/20 05:50:02;;;;;;;;;;;;;;;22.76;30.86;97979.66;5084712;28;744;-82
2021/08/20 05:52:27;;;;;;;;;;;;;;;22.75;30.16;97980.94;5096670;28;768;-81
2021/08/20 05:54:53;;;;;;;;;;;;;;;22.84;30.28;97983.84;5101684;28;1092;-83
2021/08/20 06:00:12;;;;;;;;;;;;;;;22.92;31.25;97986.50;5008951;28;1226;-83
2021/08/20 06:02:55;;;;;;;;;;;;;;;23.27;31.48;97990.22;4970026;28;1986;-84
2021/08/20 06:05:27;;;;;;;;;;;;;;;23.07;31.20;97984.81;4966907;28;1177;-85
2021/08/20 06:08:00;;;;;;;;;;;;;;;23.07;30.98;97987.63;4993289;28;1156;-83
2021/08/20 06:10:32;;;;;;;;;;;;;;;22.98;30.56;97990.38;4951718;28;1307;-83
2021/08/20 06:13:04;;;;;;;;;;;;;;;22.94;30.57;97984.00;4962776;28;1199;-83
2021/08/20 06:15:36;;;;;;;;;;;;;;;22.95;29.95;97982.75;4973850;28;1183;-83
2021/08/20 06:18:08;;;;;;;;;;;;;;;22.72;30.47;97981.81;4978992;28;1164;-83
2021/08/20 06:20:40;;;;;;;;;;;;;;;22.85;29.59;97982.63;4967071;28;1140;-83
2021/08/20 06:23:13;;;;;;;;;;;;;;;22.73;29.63;97997.59;4983763;28;1960;-82
2021/08/20 06:25:44;;;;;;;;;;;;;;;22.63;29.49;97999.50;4977974;28;1088;-83
2021/08/20 06:28:16;;;;;;;;;;;;;;;22.59;29.67;97992.38;4982476;28;1207;-83
2021/08/20 06:30:46;;;;;;;;;;;;;;;22.71;29.25;97994.41;4975679;28;1224;-83
2021/08/20 06:33:18;;;;;;;;;;;;;;;22.72;28.69;97983.88;4997027;28;1167;-82
2021/08/20 06:35:50;;;;;;;;;;;;;;;22.70;28.74;97987.16;4997096;28;1298;-83
2021/08/20 06:38:22;;;;;;;;;;;;;;;22.67;28.80;97998.59;5002706;28;1187;-83
2021/08/20 06:40:54;;;;;;;;;;;;;;;22.68;28.57;97989.63;5005849;28;1124;-83
2021/08/20 06:43:26;;;;;;;;;;;;;;;22.72;28.52;97995.22;4994718;28;1914;-84
2021/08/20 06:45:58;;;;;;;;;;;;;;;22.78;28.24;98005.53;5006619;28;1128;-83
2021/08/20 06:48:30;;;;;;;;;;;;;;;22.78;27.94;98008.38;4997588;28;1314;-83
2021/08/20 06:51:02;;;;;;;;;;;;;;;22.45;28.42;98006.97;4997202;28;1196;-84
2021/08/20 06:53:34;;;;;;;;;;;;;;;22.40;28.57;98007.53;4965421;28;1183;-83
2021/08/20 06:56:06;;;;;;;;;;;;;;;22.51;28.52;98005.97;4969139;28;1313;-83
2021/08/20 06:58:45;;;;;;;;;;;;;;;22.51;28.48;98011.63;4982897;28;1179;-82
2021/08/20 07:01:25;;;;;;;;;;;;;;;22.54;28.31;98018.47;5004340;28;1066;-83
2021/08/20 07:03:58;;;;;;;;;;;;;;;22.61;28.25;98012.56;4972779;28;1958;-83
2021/08/20 07:06:24;;;;;;;;;;;;;;;22.70;28.11;98009.06;4997892;28;1224;-84
2021/08/20 07:08:56;;;;;;;;;;;;;;;22.51;28.11;98020.13;4956380;28;1215;-84
2021/08/20 07:11:28;;;;;;;;;;;;;;;22.58;27.78;98019.13;4993507;28;1509;-83
2021/08/20 07:14:00;;;;;;;;;;;;;;;22.50;28.14;98014.94;4983663;28;1263;-84
2021/08/20 07:16:32;;;;;;;;;;;;;;;22.56;28.13;98027.28;4987208;28;1164;-84
2021/08/20 07:19:04;;;;;;;;;;;;;;;22.63;27.83;98027.84;4973452;28;1196;-84
2021/08/20 07:21:36;;;;;;;;;;;;;;;22.57;27.88;98026.03;5006452;28;1286;-83
2021/08/20 07:24:08;;;;;;;;;;;;;;;22.61;27.73;98023.91;4984055;28;1976;-83
2021/08/20 07:26:40;;;;;;;;;;;;;;;22.45;28.06;98026.81;4970451;28;1173;-84
2021/08/20 07:29:12;;;;;;;;;;;;;;;22.56;27.78;98030.13;4979231;28;1325;-83
2021/08/20 07:31:44;;;;;;;;;;;;;;;22.63;27.88;98027.84;5002190;28;1306;-82
2021/08/20 07:34:16;;;;;;;;;;;;;;;22.72;27.91;98035.72;4999429;28;1200;-83
2021/08/20 07:36:42;;;;;;;;;;;;;;;22.53;27.86;98028.19;4985075;28;1185;-83
2021/08/20 07:39:13;;;;;;;;;;;;;;;22.53;28.06;98039.53;5001039;28;1239;-83
2021/08/20 07:41:45;;;;;;;;;;;;;;;22.57;28.02;98041.00;4999158;28;1210;-83
2021/08/20 07:44:17;;;;;;;;;;;;;;;22.58;27.98;98025.59;5003679;28;1906;-83
2021/08/20 07:46:49;;;;;;;;;;;;;;;22.56;27.96;98027.28;4979035;28;1206;-83
2021/08/20 07:49:21;;;;;;;;;;;;;;;22.71;27.71;98034.13;4987438;28;1299;-84
2021/08/20 07:52:19;;;;;;;;;;;;;;;22.47;27.86;98030.00;4979429;28;1042;-83
2021/08/20 07:54:50;;;;;;;;;;;;;;;22.60;27.81;98028.78;5003233;28;1231;-83
2021/08/20 07:57:22;;;;;;;;;;;;;;;22.62;27.81;98037.63;4985246;28;1263;-83
2021/08/20 08:00:01;;;;;;;;;;;;;;;22.56;27.76;98036.59;5000274;28;1180;-83
2021/08/20 08:02:37;;;;;;;;;;;;;;;22.44;27.82;98030.91;5004474;28;1985;-83
2021/08/20 08:05:02;;;;;;;;;;;;;;;22.48;27.98;98037.25;5002968;28;1240;-83
2021/08/20 08:07:35;;;;;;;;;;;;;;;22.41;28.14;98032.59;5000795;28;1204;-83
2021/08/20 08:10:07;;;;;;;;;;;;;;;22.61;27.88;98029.56;4966898;28;1167;-84
2021/08/20 08:12:38;;;;;;;;;;;;;;;22.49;27.74;98036.81;4998070;28;1310;-83
2021/08/20 08:15:14;;;;;;;;;;;;;;;22.72;27.63;98029.25;4985473;28;1224;-83
2021/08/20 08:17:45;;;;;;;;;;;;;;;22.62;27.73;98031.16;4984643;28;1176;-83
2021/08/20 08:20:17;;;;;;;;;;;;;;;22.69;27.66;98039.47;5004626;28;1160;-84
2021/08/20 08:22:49;;;;;;;;;;;;;;;22.51;28.00;98033.53;5003509;28;1879;-84
2021/08/20 08:25:21;;;;;;;;;;;;;;;22.60;27.87;98028.00;4985514;28;1303;-83
2021/08/20 08:27:57;;;;;;;;;;;;;;;22.50;27.80;98034.78;5004771;28;1300;-82
2021/08/20 08:30:33;;;;;;;;;;;;;;;22.62;27.51;98031.16;4992393;28;691;-83
2021/08/20 08:33:06;;;;;;;;;;;;;;;22.27;28.06;98022.44;5002769;28;1148;-83
2021/08/20 08:35:37;;;;;;;;;;;;;;;22.40;27.84;98018.88;4999600;28;1180;-83
2021/08/20 08:38:10;;;;;;;;;;;;;;;22.42;27.90;98027.72;4997295;28;1187;-83
2021/08/20 08:40:43;;;;;;;;;;;;;;;22.56;27.88;98027.28;4977284;28;1375;-82
2021/08/20 08:43:09;;;;;;;;;;;;;;;22.63;27.57;98029.91;4952656;28;1972;-83
2021/08/20 08:45:40;;;;;;;;;;;;;;;22.59;27.60;98027.19;4984654;28;1069;-83
2021/08/20 08:48:14;;;;;;;;;;;;;;;22.46;27.88;98029.19;4983202;28;1195;-83
2021/08/20 08:50:47;;;;;;;;;;;;;;;22.50;27.79;98023.44;4985447;28;1081;-83
2021/08/20 08:53:46;;;;;;;;;;;;;;;22.43;27.77;98026.47;4979820;28;982;-83
2021/08/20 08:56:18;;;;;;;;;;;;;;;22.49;27.91;98027.53;4977156;28;1184;-83
2021/08/20 08:58:49;;;;;;;;;;;;;;;22.31;27.94;98026.00;4972324;28;1147;-83
2021/08/20 09:01:28;;;;;;;;;;;;;;;22.43;27.70;98018.75;4987951;28;750;-84
2021/08/20 09:04:08;;;;;;;;;;;;;;;22.65;27.92;98027.44;4987134;28;1891;-83
2021/08/20 09:06:40;;;;;;;;;;;;;;;22.62;27.83;98028.31;4987168;28;897;-83
2021/08/20 09:09:20;;;;;;;;;;;;;;;22.58;27.64;98030.47;4987274;28;716;-83
2021/08/20 09:11:58;;;;;;;;;;;;;;;22.59;27.55;98026.41;4971608;28;751;-83
2021/08/20 09:14:33;;;;;;;;;;;;;;;22.56;27.63;98025.25;4986711;28;687;-82
2021/08/20 09:17:05;;;;;;;;;;;;;;;22.56;27.64;98021.63;4987019;28;655;-81
2021/08/20 09:19:37;;;;;;;;;;;;;;;22.41;27.75;98018.41;4986789;28;930;-81
2021/08/20 09:22:09;;;;;;;;;;;;;;;22.36;27.83;98021.81;4987177;28;954;-82
2021/08/20 09:24:42;;;;;;;;;;;;;;;22.28;28.17;98028.94;4987515;28;619;-83
2021/08/20 09:27:14;;;;;;;;;;;;;;;22.50;27.99;98029.91;4987735;28;1416;-83
2021/08/20 09:29:52;;;;;;;;;;;;;;;22.48;28.07;98028.75;4987469;28;630;-83
2021/08/20 09:32:24;;;;;;;;;;;;;;;22.40;28.16;98016.03;4986548;28;607;-83
2021/08/20 09:34:58;;;;;;;;;;;;;;;22.41;27.87;98020.47;4986606;28;1127;-83
2021/08/20 09:37:30;;;;;;;;;;;;;;;22.45;27.77;98026.81;4971242;28;859;-83
2021/08/20 09:40:19;;;;;;;;;;;;;;;22.36;28.09;98022.59;4986630;28;634;-83
2021/08/20 09:42:52;;;;;;;;;;;;;;;22.55;27.79;98017.22;4974120;28;1975;-83
2021/08/20 09:45:23;;;;;;;;;;;;;;;22.49;27.68;98021.84;4987359;28;630;-83
2021/08/20 09:47:53;;;;;;;;;;;;;;;22.39;28.11;98022.97;4987602;28;737;-84
2021/08/20 09:50:54;;;;;;;;;;;;;;;22.59;27.89;98026.41;4987185;28;964;-83
2021/08/20 09:53:28;;;;;;;;;;;;;;;22.54;27.69;98024.91;4983595;28;1284;-83
2021/08/20 09:55:54;;;;;;;;;;;;;;;22.57;27.90;98024.00;4987198;28;627;-83
2021/08/20 09:58:32;;;;;;;;;;;;;;;22.43;28.14;98017.97;4988376;28;988;-83
2021/08/20 10:01:11;;;;;;;;;;;;;;;22.58;27.59;98024.78;4992080;28;723;-83
2021/08/20 10:03:44;;;;;;;;;;;;;;;22.55;27.80;98020.84;4973903;28;1973;-83
2021/08/20 10:06:09;;;;;;;;;;;;;;;22.46;27.65;98012.19;4973588;28;1152;-83
2021/08/20 10:08:41;;;;;;;;;;;;;;;22.33;28.01;98015.00;4974233;28;1161;-83
2021/08/20 10:11:14;;;;;;;;;;;;;;;22.51;27.79;98019.34;4990851;28;666;-82
2021/08/20 10:13:40;;;;;;;;;;;;;;;22.55;27.93;98014.38;4989627;28;1381;-83
2021/08/20 10:16:12;;;;;;;;;;;;;;;22.54;27.83;98021.28;4973900;28;1078;-82
2021/08/20 10:18:38;;;;;;;;;;;;;;;22.54;27.60;98007.13;4957642;28;856;-82
2021/08/20 10:21:11;;;;;;;;;;;;;;;22.51;27.74;98016.50;4990695;28;962;-83
2021/08/20 10:23:36;;;;;;;;;;;;;;;22.52;27.85;98004.72;4988743;28;2034;-83
2021/08/20 10:26:09;;;;;;;;;;;;;;;22.50;28.10;98000.75;4975442;28;661;-83
2021/08/20 10:28:35;;;;;;;;;;;;;;;22.41;27.92;98006.28;4988929;28;615;-83
2021/08/20 10:31:08;;;;;;;;;;;;;;;22.62;27.47;98008.47;4990526;28;706;-82
2021/08/20 10:33:34;;;;;;;;;;;;;;;22.61;27.57;98012.56;4972118;28;741;-82
2021/08/20 10:36:05;;;;;;;;;;;;;;;22.61;27.84;98002.00;4990247;28;942;-83
2021/08/20 10:38:50;;;;;;;;;;;;;;;22.50;27.80;98003.59;4989589;28;964;-82
2021/08/20 10:41:23;;;;;;;;;;;;;;;22.63;27.76;97995.88;4989926;28;691;-83
2021/08/20 10:43:48;;;;;;;;;;;;;;;22.62;27.76;98002.81;4988746;28;1910;-82
2021/08/20 10:46:36;;;;;;;;;;;;;;;22.41;27.88;97997.78;5006248;28;655;-83
2021/08/20 10:49:11;;;;;;;;;;;;;;;22.35;27.98;97998.34;5006962;28;615;-82
2021/08/20 10:51:58;;;;;;;;;;;;;;;22.40;27.90;97997.00;5008353;28;987;-82
2021/08/20 10:54:33;;;;;;;;;;;;;;;22.39;27.98;97986.09;5008715;28;986;-82
2021/08/20 10:57:10;;;;;;;;;;;;;;;22.38;28.17;97993.00;5009372;28;733;-82
2021/08/20 10:59:36;;;;;;;;;;;;;;;22.25;28.47;97990.16;4974603;28;1028;-83
2021/08/20 11:02:20;;;;;;;;;;;;;;;22.35;28.12;97998.34;4993166;28;699;-83
2021/08/20 11:04:57;;;;;;;;;;;;;;;22.45;28.07;97987.13;5008782;28;626;-83
2021/08/20 11:07:42;;;;;;;;;;;;;;;22.38;27.93;97981.66;4992328;28;1168;-83
2021/08/20 11:10:15;;;;;;;;;;;;;;;22.49;27.85;97979.31;4991320;28;939;-82
2021/08/20 11:15:42;;;;;;;;;;;;;;;22.90;29.20;97972.78;4949772;29;1300;-83
2021/08/20 11:18:07;;;;;;;;;;;;;;;23.02;28.99;97974.03;4918040;29;914;-82
2021/08/20 11:20:43;;;;;;;;;;;;;;;22.83;29.56;97970.91;4917973;29;956;-83
2021/08/20 11:23:09;;;;;;;;;;;;;;;22.64;29.82;97966.28;4932860;29;1899;-82
2021/08/20 11:25:36;;;;;;;;;;;;;;;22.66;29.83;97972.28;4918739;29;1209;-82
2021/08/20 11:28:02;;;;;;;;;;;;;;;22.71;29.53;97965.25;4933751;29;1066;-80
2021/08/20 11:30:29;;;;;;;;;;;;;;;22.59;29.46;97969.69;4938411;29;1059;-82
2021/08/20 11:33:08;;;;;;;;;;;;;;;22.69;29.11;97968.56;4941840;29;1193;-82
2021/08/20 11:35:33;;;;;;;;;;;;;;;22.43;29.38;97966.94;4941475;29;1157;-83
2021/08/20 11:37:58;;;;;;;;;;;;;;;22.54;29.21;97961.75;4930737;29;1229;-82
2021/08/20 11:40:24;;;;;;;;;;;;;;;22.67;28.76;97948.34;4925362;29;1193;-82
2021/08/20 11:43:06;;;;;;;;;;;;;;;22.60;28.70;97971.28;4958500;29;1910;-82
2021/08/20 11:45:31;;;;;;;;;;;;;;;22.59;28.67;97964.81;4946839;29;1292;-83
2021/08/20 11:48:00;;;;;;;;;;;;;;;22.81;28.27;97962.09;4926756;29;1236;-81
2021/08/20 11:50:26;;;;;;;;;;;;;;;22.79;28.24;97956.06;4950153;29;729;-83
2021/08/20 11:52:51;;;;;;;;;;;;;;;22.66;28.56;97958.09;4949843;29;640;-83
2021/08/20 11:55:17;;;;;;;;;;;;;;;22.80;28.09;97952.00;4932107;29;1253;-84
2021/08/20 11:57:43;;;;;;;;;;;;;;;22.59;28.56;97944.16;4944080;29;1149;-83
2021/08/20 12:00:09;;;;;;;;;;;;;;;22.76;28.02;97945.63;4939499;29;1201;-83
2021/08/20 12:02:34;;;;;;;;;;;;;;;22.69;28.13;97943.03;4943860;29;1871;-83
2021/08/20 12:05:16;;;;;;;;;;;;;;;22.45;28.49;97936.09;4941166;29;1169;-83
2021/08/20 12:07:41;;;;;;;;;;;;;;;22.35;28.63;97938.81;4933883;29;1237;-80
2021/08/20 12:10:08;;;;;;;;;;;;;;;22.52;28.38;97930.97;4932501;29;812;-83
2021/08/20 12:12:34;;;;;;;;;;;;;;;22.69;28.27;97939.38;4933367;29;1304;-81
2021/08/20 12:15:00;;;;;;;;;;;;;;;22.80;28.13;97937.81;4929555;29;1271;-82
2021/08/20 12:17:28;;;;;;;;;;;;;;;22.64;27.93;97937.94;4947509;29;865;-83
2021/08/20 12:19:56;;;;;;;;;;;;;;;22.68;28.25;97932.13;4932390;29;1468;-81
2021/08/20 12:22:21;;;;;;;;;;;;;;;22.79;27.98;97933.34;4933175;29;1911;-82
2021/08/20 12:24:52;;;;;;;;;;;;;;;22.33;28.43;97924.31;4932737;29;835;-82
2021/08/20 12:27:17;;;;;;;;;;;;;;;22.45;28.56;97919.09;4932700;29;1189;-82
2021/08/20 12:30:15;;;;;;;;;;;;;;;22.50;28.39;97927.81;4947001;29;1029;-80
2021/08/20 12:32:42;;;;;;;;;;;;;;;22.42;28.53;97922.81;4916247;29;1315;-80
2021/08/20 12:35:08;;;;;;;;;;;;;;;22.57;28.05;97921.13;4946886;29;932;-80
2021/08/20 12:37:34;;;;;;;;;;;;;;;22.49;28.33;97914.09;4931206;29;793;-82
2021/08/20 12:40:06;;;;;;;;;;;;;;;22.47;28.40;97917.38;4931288;29;942;-81
2021/08/20 12:42:31;;;;;;;;;;;;;;;22.33;28.54;97924.31;4946881;29;1910;-82
2021/08/20 12:45:16;;;;;;;;;;;;;;;22.60;28.23;97914.56;4947233;29;916;-83
2021/08/20 12:47:42;;;;;;;;;;;;;;;22.45;28.37;97924.75;4947655;29;876;-82
2021/08/20 12:50:14;;;;;;;;;;;;;;;22.45;28.23;97936.09;4948530;29;1267;-83
2021/08/20 12:52:40;;;;;;;;;;;;;;;22.34;28.58;97925.88;4948133;29;837;-82
2021/08/20 12:55:25;;;;;;;;;;;;;;;22.50;28.24;97927.03;4932275;29;1352;-80
2021/08/20 12:57:51;;;;;;;;;;;;;;;22.43;28.40;97918.72;4948041;29;965;-81
2021/08/20 13:00:17;;;;;;;;;;;;;;;22.60;28.01;97921.03;4931549;29;1208;-82
2021/08/20 13:02:42;;;;;;;;;;;;;;;22.72;28.03;97919.41;4930523;29;1895;-82
2021/08/20 13:05:08;;;;;;;;;;;;;;;22.72;27.96;97930.75;4915691;29;1164;-82
2021/08/20 13:07:36;;;;;;;;;;;;;;;22.66;27.75;97923.28;4931970;29;1165;-82
2021/08/20 13:10:01;;;;;;;;;;;;;;;22.53;28.27;97931.78;4962116;29;861;-83
2021/08/20 13:12:26;;;;;;;;;;;;;;;22.68;27.84;97926.44;4947270;29;703;-82
2021/08/20 13:14:55;;;;;;;;;;;;;;;22.66;28.05;97926.91;4946185;29;1023;-80
2021/08/20 13:17:20;;;;;;;;;;;;;;;22.53;28.13;97923.28;4947418;29;974;-82
2021/08/20 13:19:46;;;;;;;;;;;;;;;22.68;27.92;97932.13;4947857;29;876;-82
2021/08/20 13:22:12;;;;;;;;;;;;;;;22.77;27.77;97926.56;4947879;29;921;-84
2021/08/20 13:24:41;;;;;;;;;;;;;;;22.66;28.01;97932.59;4947832;29;1950;-82